Wetterstation Rottenburg Seebronn / 442m msl / http://mut-lambrecht.de
LETZTE AKTUALISIERUNG UM: 19:25 DATUM: Oktober 16 2021, time of next update: 19:30
Aktuelles Wettermostly clear/Night Aktuelle Temperatur 9.6°C (49.3°F), Apparent temp 9.1°C
Höchsttemperatur (seit Mitternacht)13.4°C um: 15:02 Tiefsttemperatur (seit Mitternacht)5.5°C um: 01:26
Windgeschwindigkeit (10 Minuten )0.0 kmh (0.0 kts) Windrichtung (Dir) (10 Minuten )NE (54°)
Windchill Temperatur 9.6°C Windspitzen (letzte Std)3.9 kmh (2.1 kts) um: 18:25
Windspitzen (seit Mitternacht)16.7 kmh (9.0 kts) um: 16:32 Höchstes Windmittel / Minute (seit Mitternacht)8.9 kmh (4.8 kts) um: 16:34
Regenmenge (letzte Std)0.0 mm Regenmenge (seit Mitternacht)0.0 mm (0.00 in.)---
Regenmenge diesen Monat 0.0 mm (0.00 in.) Regenmenge seit Jahresbeginn 989.9 mm (38.97 in.)
Höchste Regenmenge pro Minute (letzte Std)0.0 mm/min Höchste Regenmenge pro Stunde (letzte 6 Std)0.0 mm/stunde
Regenmenge Gestern 0.0 mm Taupunkt 6.1°C (Wet Bulb :8.0°C )
Luftfeuchtigkeit 79 %, Humidex 9.3°C Aktueller Luftdruck (auf Meereshöhe bezogen)1019.3 hPa
Luftdrucktendenz 0.0 hPa (letzte Std) Trend (letzte 1 Std)gleichbleibend
Luftdrucktendenz (letzte 12 Std)+0.5 hPa Luftdrucktendenz (letzte 6 Std)-1.5 hPa


Grafische Darstellung der letzten 24 Stunden.
Grafische Darstellung der letzten 48 Stunden.
Grafische Darstellung der letzten 72 Stunden.
Grafische Darstellung der letzten month.


Weather report/warning/Metars

Stuttgart-Echterdingen, Germany (EDDS) 48-41N 009-13E 391M
Oct 16, 2021 - 12:50 PM EDT / 2021.10.16 1650 UTC
Wind: from the N (360 degrees) at 5 MPH (4 KT):0
Visibility: greater than 7 mile(s):0
Sky conditions: mostly clear
Temperature: 51 F (11 C)
Dew Point: 44 F (7 C)
Relative Humidity: 76%
Pressure (altimeter): 30.12 in. Hg (1020 hPa)
ob: EDDS 161650Z 36004KT 9999 FEW030 11/07 Q1020 NOSIG
cycle: 17
Karlsruhe, Baden Wurttemberg, Germany (EDSB) 48-46-43N 008-04-47E
Oct 16, 2021 - 12:50 PM EDT / 2021.10.16 1650 UTC
Wind: from the NNW (340 degrees) at 3 MPH (3 KT):0
Visibility: 5 mile(s):0
Temperature: 50 F (10 C)
Dew Point: 46 F (8 C)
Relative Humidity: 87%
Pressure (altimeter): 30.12 in. Hg (1020 hPa)
ob: EDSB 161650Z 34003KT 9000 NSC 10/08 Q1020
cycle: 17
Lahr, CAN-AFB, Germany (EDTL) 48-22-09N 007-49-40E
Oct 16, 2021 - 12:50 PM EDT / 2021.10.16 1650 UTC
Wind: from the NW (310 degrees) at 5 MPH (4 KT) (direction variable):0
Visibility: 4 mile(s):0
Sky conditions: overcast
Temperature: 50 F (10 C)
Dew Point: 48 F (9 C)
Relative Humidity: 93%
Pressure (altimeter): 30.15 in. Hg (1021 hPa)
ob: EDTL 161650Z 31004KT 280V350 7000 OVC010 10/09 Q1021
cycle: 17
Laupheim, Germany (ETHL) 48-13N 009-55E 550M
Oct 16, 2021 - 12:20 PM EDT / 2021.10.16 1620 UTC
Wind: from the ENE (060 degrees) at 5 MPH (4 KT):0
Visibility: greater than 7 mile(s):0
Sky conditions: mostly clear
Temperature: 48 F (9 C)
Dew Point: 42 F (6 C)
Relative Humidity: 81%
Pressure (altimeter): 30.12 in. Hg (1020 hPa)
ob: ETHL 161620Z 06004KT 9999 FEW050 09/06 Q1020 BLU+
cycle: 16


Klicken Sie hier, um zu den Durchschnitts-, Extrem-, Monats- oder Tageswerten zu gelangen


Die Wetterdaten werden alle 5 Minuten aktualisiert.
Die 3 stündige Echtzeitgrafik wird jede Minute aktualisiert.
Bei der 3 stündige Echtzeitgrafik sind derzeit die Skalenfarben von Winddurchschnitt u. Windböen vertauscht. (Softwarebug)

Drücken Sie gegebenenfalls auf "Aktualisieren" in Ihrem Browser, um die aktuellsten Daten zu erhalten.